Voss, Texas
Current Conditions -  °F | °C
As of 11:55 AM on Thursday 23 Oct 2014 (Local Time) from KCOM Reporting Station
Broken Clouds Broken Clouds  
Wind Chill: 76°   Ceiling: 6500
Heat Index: 76°   Visibility: 10mi
Dew Point: 61°   Wind: 5mph
Humidity: 60%   Direction: 200°SSW
Pressure: 30.16"   Gusts: NA
Location:  31.62°N, 99.56°W
Report Text: KCOM 231655Z AUTO 20004KT 10SM BKN065 24/16 A3016 RMK AO2 T02420160
Loading
Personal Weather Stations






























Interactive Weather Map
Tropical Storm Tracking
New forecast layout! Learn more

10-Day Weather Forecast

Advertisements
Track Severe Weather on mobile